createdAt,value
2023-03-11T00:00:48.692Z,0.10
2023-03-11T00:03:18.272Z,0.10
2023-03-11T00:05:47.130Z,0.08
2023-03-11T00:08:17.392Z,0.00
2023-03-11T00:10:46.744Z,0.03
2023-03-11T00:13:16.439Z,0.10
2023-03-11T00:15:47.151Z,0.10
2023-03-11T00:18:14.905Z,0.30
2023-03-11T00:20:44.913Z,0.57
2023-03-11T00:23:13.882Z,0.20
2023-03-11T00:25:41.746Z,0.10
2023-03-11T00:28:10.498Z,0.40
2023-03-11T00:30:39.557Z,0.30
2023-03-11T00:33:09.172Z,0.80
2023-03-11T00:35:37.260Z,0.20
2023-03-11T00:38:07.613Z,0.20
2023-03-11T00:40:57.153Z,0.40
2023-03-11T00:43:24.817Z,0.00
2023-03-11T00:45:52.535Z,0.20
2023-03-11T00:48:21.653Z,0.10
2023-03-11T00:50:49.368Z,0.00
2023-03-11T00:53:17.089Z,0.30
2023-03-11T00:55:44.941Z,0.08
2023-03-11T00:58:13.562Z,0.10
2023-03-11T01:00:41.509Z,0.50
2023-03-11T01:03:09.852Z,0.10
2023-03-11T01:05:39.087Z,0.30
2023-03-11T01:08:06.880Z,0.10
2023-03-11T01:10:35.674Z,0.20
2023-03-11T01:13:03.815Z,0.08
2023-03-11T01:15:33.440Z,0.10
2023-03-11T01:18:01.394Z,0.10
2023-03-11T01:20:29.374Z,0.20
2023-03-11T01:22:58.474Z,0.10
2023-03-11T01:25:26.484Z,0.10
2023-03-11T01:27:54.249Z,0.13
2023-03-11T01:30:23.463Z,0.30
2023-03-11T01:32:51.921Z,0.10
2023-03-11T01:35:21.404Z,0.25
2023-03-11T01:38:09.955Z,0.00
2023-03-11T01:40:40.796Z,0.40
2023-03-11T01:43:46.679Z,0.10
2023-03-11T01:46:17.636Z,0.40
2023-03-11T01:48:47.846Z,0.30
2023-03-11T01:51:17.490Z,0.50
2023-03-11T01:53:45.283Z,0.10
2023-03-11T01:56:13.879Z,0.20
2023-03-11T01:58:44.976Z,0.20
2023-03-11T02:01:13.067Z,0.10
2023-03-11T02:03:43.030Z,0.50
2023-03-11T02:06:13.830Z,0.10
2023-03-11T02:08:43.280Z,0.10
2023-03-11T02:11:13.728Z,0.40
2023-03-11T02:13:42.618Z,0.10
2023-03-11T02:16:10.576Z,0.20
2023-03-11T02:18:38.743Z,0.08
2023-03-11T02:21:15.018Z,0.15
2023-03-11T02:23:49.156Z,0.30
2023-03-11T02:26:20.052Z,0.10
2023-03-11T02:28:49.864Z,0.10
2023-03-11T02:31:17.843Z,0.10
2023-03-11T02:33:47.272Z,0.17
2023-03-11T02:36:35.333Z,0.10
2023-03-11T02:39:03.158Z,0.30
2023-03-11T02:41:31.521Z,0.40
2023-03-11T02:44:01.201Z,0.10
2023-03-11T02:46:29.043Z,0.10
2023-03-11T02:48:57.471Z,0.20
2023-03-11T02:51:25.212Z,0.10
2023-03-11T02:53:56.051Z,0.10
2023-03-11T02:56:23.769Z,1.00
2023-03-11T02:58:51.458Z,0.20
2023-03-11T03:01:20.653Z,0.00
2023-03-11T03:03:48.475Z,0.10
2023-03-11T03:06:16.206Z,0.20
2023-03-11T03:08:44.058Z,0.00
2023-03-11T03:11:11.858Z,0.10
2023-03-11T03:13:39.571Z,0.10
2023-03-11T03:16:07.742Z,0.10
2023-03-11T03:18:37.079Z,0.00
2023-03-11T03:21:05.598Z,0.30
2023-03-11T03:23:35.243Z,0.30
2023-03-11T03:26:03.245Z,0.00
2023-03-11T03:28:30.968Z,0.10
2023-03-11T03:31:04.953Z,0.50
2023-03-11T03:33:33.100Z,0.00
2023-03-11T03:36:02.299Z,0.20
2023-03-11T03:38:30.097Z,0.00
2023-03-11T03:40:57.808Z,0.20
2023-03-11T03:43:25.696Z,0.10
2023-03-11T03:45:57.251Z,0.30
2023-03-11T03:48:25.046Z,1.00
2023-03-11T03:50:53.089Z,0.30
2023-03-11T03:53:22.432Z,1.10
2023-03-11T03:55:50.946Z,0.20
2023-03-11T03:58:18.651Z,0.10
2023-03-11T04:00:46.510Z,0.10
2023-03-11T04:03:14.215Z,0.00
2023-03-11T04:05:41.932Z,0.15
2023-03-11T04:08:09.657Z,0.30
2023-03-11T04:10:38.769Z,0.10
2023-03-11T04:13:06.457Z,0.10
2023-03-11T04:15:34.208Z,0.10
2023-03-11T04:18:01.886Z,0.10
2023-03-11T04:20:29.581Z,0.45
2023-03-11T04:22:57.267Z,0.20
2023-03-11T04:25:24.981Z,0.90
2023-03-11T04:27:54.035Z,0.30
2023-03-11T04:30:21.905Z,0.10
2023-03-11T04:33:05.497Z,0.10
2023-03-11T04:35:33.210Z,0.10
2023-03-11T04:38:01.514Z,0.10
2023-03-11T04:40:29.243Z,0.70
2023-03-11T04:43:04.466Z,0.50
2023-03-11T04:45:32.248Z,0.40
2023-03-11T04:47:59.942Z,0.00
2023-03-11T04:50:27.659Z,0.55
2023-03-11T04:52:56.537Z,0.25
2023-03-11T04:55:24.234Z,0.08
2023-03-11T05:01:37.421Z,0.80
2023-03-11T05:04:05.198Z,0.20
2023-03-11T05:06:32.914Z,0.10
2023-03-11T05:09:00.584Z,0.10
2023-03-11T05:11:28.272Z,0.30
2023-03-11T05:13:55.938Z,0.30
2023-03-11T05:16:23.714Z,0.13
2023-03-11T05:18:52.905Z,0.40
2023-03-11T05:21:20.548Z,0.30
2023-03-11T05:23:48.182Z,0.20
2023-03-11T05:26:15.821Z,0.00
2023-03-11T05:28:43.466Z,0.10
2023-03-11T05:31:11.757Z,0.00
2023-03-11T05:33:39.461Z,0.52
2023-03-11T05:36:11.452Z,0.40
2023-03-11T05:38:39.498Z,0.10
2023-03-11T05:41:07.495Z,0.10
2023-03-11T05:43:35.173Z,0.20
2023-03-11T05:46:02.869Z,0.05
2023-03-11T05:48:30.884Z,0.13
2023-03-11T05:50:59.429Z,0.30
2023-03-11T05:53:28.454Z,0.10
2023-03-11T05:55:59.400Z,0.10
2023-03-11T05:58:27.165Z,0.35
2023-03-11T06:00:55.023Z,0.20
2023-03-11T06:03:22.768Z,0.50
2023-03-11T06:05:52.721Z,0.10
2023-03-11T06:08:22.008Z,0.52
2023-03-11T06:10:51.044Z,0.52
2023-03-11T06:13:18.704Z,0.05
2023-03-11T06:15:46.826Z,0.20
2023-03-11T06:18:14.457Z,0.10
2023-03-11T06:20:42.083Z,0.45
2023-03-11T06:23:09.756Z,0.70
2023-03-11T06:25:37.511Z,0.40
2023-03-11T06:28:06.734Z,0.40
2023-03-11T06:30:34.417Z,0.28
2023-03-11T06:33:02.085Z,0.17
2023-03-11T06:35:29.824Z,0.10
2023-03-11T06:37:57.475Z,0.17
2023-03-11T06:40:25.157Z,0.55
2023-03-11T06:42:52.857Z,1.48
2023-03-11T06:45:21.955Z,0.30
2023-03-11T06:47:49.621Z,0.10
2023-03-11T06:50:17.946Z,0.63
2023-03-11T06:52:45.642Z,0.10
2023-03-11T06:55:13.299Z,0.70
2023-03-11T06:57:40.963Z,0.60
2023-03-11T07:00:12.615Z,0.08
2023-03-11T07:02:41.741Z,0.20
2023-03-11T07:05:10.180Z,0.10
2023-03-11T07:07:37.880Z,0.03
2023-03-11T07:10:06.515Z,0.45
2023-03-11T07:12:34.189Z,0.50
2023-03-11T07:15:02.119Z,0.43
2023-03-11T07:17:29.778Z,1.00
2023-03-11T07:19:58.932Z,0.90
2023-03-11T07:22:26.741Z,0.60
2023-03-11T07:24:54.573Z,0.30
2023-03-11T07:27:22.481Z,0.60
2023-03-11T07:29:50.347Z,0.32
2023-03-11T07:32:18.123Z,0.35
2023-03-11T07:34:45.813Z,0.38
2023-03-11T07:37:15.383Z,0.35
2023-03-11T07:39:43.152Z,0.50
2023-03-11T07:42:10.861Z,0.55
2023-03-11T07:44:38.767Z,0.50
2023-03-11T07:47:07.320Z,0.80
2023-03-11T07:49:34.994Z,0.75
2023-03-11T07:52:02.725Z,0.20
2023-03-11T07:54:31.771Z,0.53
2023-03-11T07:56:59.435Z,0.30
2023-03-11T07:59:27.189Z,1.15
2023-03-11T08:01:54.836Z,0.20
2023-03-11T08:04:22.536Z,0.60
2023-03-11T08:06:52.006Z,0.80
2023-03-11T08:09:19.792Z,0.30
2023-03-11T08:11:49.884Z,1.10
2023-03-11T08:14:17.599Z,0.80
2023-03-11T08:16:45.225Z,0.50
2023-03-11T08:19:13.282Z,0.50
2023-03-11T08:21:41.170Z,0.65
2023-03-11T08:24:09.206Z,0.40
2023-03-11T08:26:36.932Z,1.17
2023-03-11T08:29:06.164Z,0.40
2023-03-11T08:31:35.238Z,0.57
2023-03-11T08:34:05.325Z,0.80
2023-03-11T08:36:33.704Z,0.80
2023-03-11T08:39:02.031Z,0.70
2023-03-11T08:41:29.994Z,0.75
2023-03-11T08:43:57.697Z,0.38
2023-03-11T08:46:28.864Z,0.65
2023-03-11T08:48:59.715Z,0.77
2023-03-11T08:51:29.252Z,0.93
2023-03-11T08:53:56.982Z,1.00
2023-03-11T08:56:24.798Z,0.70
2023-03-11T08:58:52.825Z,0.50
2023-03-11T09:01:21.296Z,0.95
2023-03-11T09:03:50.736Z,1.00
2023-03-11T09:06:18.810Z,0.80
2023-03-11T09:08:47.664Z,0.60
2023-03-11T09:11:15.887Z,0.87
2023-03-11T09:13:44.112Z,0.80
2023-03-11T09:16:14.327Z,0.88
2023-03-11T09:18:42.137Z,0.70
2023-03-11T09:21:11.835Z,0.80
2023-03-11T09:23:41.635Z,0.95
2023-03-11T09:26:11.476Z,1.17
2023-03-11T09:28:39.181Z,0.98
2023-03-11T09:31:07.250Z,0.52
2023-03-11T09:33:38.113Z,0.90
2023-03-11T09:36:07.126Z,1.00
2023-03-11T09:38:36.297Z,1.17
2023-03-11T09:41:07.908Z,0.90
2023-03-11T09:43:49.197Z,0.93
2023-03-11T09:46:31.748Z,0.50
2023-03-11T09:49:02.522Z,0.83
2023-03-11T09:51:32.235Z,1.08
2023-03-11T09:54:05.172Z,0.90
2023-03-11T09:56:36.456Z,0.60
2023-03-11T09:59:07.630Z,0.60
2023-03-11T10:01:37.461Z,0.68
2023-03-11T10:04:09.892Z,0.70
2023-03-11T10:06:37.906Z,0.40
2023-03-11T10:09:24.646Z,0.50
2023-03-11T10:11:58.735Z,0.17
2023-03-11T10:14:39.835Z,0.10
2023-03-11T10:17:16.924Z,0.10
2023-03-11T10:19:49.059Z,0.00
2023-03-11T10:22:22.052Z,0.20
2023-03-11T10:25:01.491Z,0.50
2023-03-11T10:27:32.885Z,0.10
2023-03-11T10:30:05.307Z,0.50
2023-03-11T10:32:39.361Z,0.10
2023-03-11T10:35:16.856Z,0.20
2023-03-11T10:37:50.003Z,0.15
2023-03-11T10:40:25.556Z,0.25
2023-03-11T10:42:55.263Z,0.65
2023-03-11T10:45:24.016Z,0.85
2023-03-11T10:47:52.023Z,1.50
2023-03-11T10:50:21.077Z,1.60
2023-03-11T10:53:07.727Z,0.80
2023-03-11T10:55:37.308Z,0.90
2023-03-11T10:58:11.971Z,1.27
2023-03-11T11:00:39.695Z,1.20
2023-03-11T11:03:15.879Z,1.05
2023-03-11T11:05:43.558Z,1.77
2023-03-11T11:08:15.906Z,0.70
2023-03-11T11:10:53.169Z,0.88
2023-03-11T11:13:22.426Z,0.90
2023-03-11T11:15:55.939Z,0.90
2023-03-11T11:18:25.906Z,1.00
2023-03-11T11:21:00.871Z,0.93
2023-03-11T11:23:32.730Z,0.90
2023-03-11T11:26:04.667Z,0.75
2023-03-11T11:28:33.685Z,1.00
2023-03-11T11:31:03.808Z,0.90
2023-03-11T11:33:32.510Z,1.00
2023-03-11T11:36:02.838Z,1.35
2023-03-11T11:38:31.952Z,1.40
2023-03-11T11:41:04.859Z,0.70
2023-03-11T11:43:44.097Z,0.77
2023-03-11T11:46:21.100Z,1.02
2023-03-11T11:48:52.779Z,1.00
2023-03-11T11:51:22.732Z,0.70
2023-03-11T11:53:53.669Z,0.70
2023-03-11T11:56:25.074Z,0.55
2023-03-11T11:58:54.704Z,1.02
2023-03-11T12:01:31.683Z,0.90
2023-03-11T12:04:23.923Z,0.90
2023-03-11T12:06:58.710Z,0.80
2023-03-11T12:09:31.374Z,0.60
2023-03-11T12:12:06.233Z,0.70
2023-03-11T12:14:37.231Z,0.80
2023-03-11T12:17:05.498Z,0.60
2023-03-11T12:19:38.455Z,1.02
2023-03-11T12:22:18.710Z,0.50
2023-03-11T12:24:59.258Z,0.60
2023-03-11T12:27:31.379Z,0.80
2023-03-11T12:30:01.400Z,0.77
2023-03-11T12:32:33.751Z,0.88
2023-03-11T12:35:04.642Z,0.77
2023-03-11T12:37:32.511Z,0.70
2023-03-11T12:40:00.453Z,0.70
2023-03-11T12:42:40.021Z,0.88
2023-03-11T12:45:48.532Z,0.50
2023-03-11T12:48:37.015Z,1.25
2023-03-11T12:51:05.838Z,1.00
2023-03-11T12:53:43.933Z,0.80
2023-03-11T12:56:20.656Z,0.60
2023-03-11T12:59:11.164Z,0.85
2023-03-11T13:02:03.479Z,0.77
2023-03-11T13:04:41.608Z,0.80
2023-03-11T13:07:41.828Z,0.95
2023-03-11T13:10:16.088Z,0.80
2023-03-11T13:12:45.323Z,0.70
2023-03-11T13:15:41.688Z,1.45
2023-03-11T13:18:24.853Z,0.70
2023-03-11T13:20:59.917Z,0.77
2023-03-11T13:23:33.827Z,1.02
2023-03-11T13:26:23.878Z,0.65
2023-03-11T13:28:58.784Z,0.70
2023-03-11T13:31:38.843Z,1.75
2023-03-11T13:34:15.632Z,0.90
2023-03-11T13:36:51.365Z,1.30
2023-03-11T13:39:25.938Z,1.27
2023-03-11T13:41:54.111Z,1.38
2023-03-11T13:44:28.998Z,1.08
2023-03-11T13:47:02.765Z,1.08
2023-03-11T13:49:36.784Z,1.08
2023-03-11T13:52:05.325Z,0.98
2023-03-11T13:54:39.316Z,1.02
2023-03-11T13:57:07.352Z,1.80
2023-03-11T13:59:36.348Z,1.50
2023-03-11T14:02:35.364Z,1.00
2023-03-11T14:05:05.369Z,1.10
2023-03-11T14:07:35.445Z,1.20
2023-03-11T14:10:25.249Z,1.30
2023-03-11T14:12:53.199Z,1.03
2023-03-11T14:15:23.113Z,1.20
2023-03-11T14:17:54.529Z,1.10
2023-03-11T14:20:25.390Z,1.13
2023-03-11T14:22:54.971Z,0.85
2023-03-11T14:25:25.918Z,0.93
2023-03-11T14:27:56.192Z,1.23
2023-03-11T14:30:26.545Z,0.73
2023-03-11T14:33:01.482Z,0.90
2023-03-11T14:35:29.877Z,0.90
2023-03-11T14:37:57.635Z,0.80
2023-03-11T14:40:28.876Z,0.75
2023-03-11T14:42:58.624Z,0.60
2023-03-11T14:45:27.674Z,0.70
2023-03-11T14:47:57.579Z,0.98
2023-03-11T14:50:28.287Z,0.60
2023-03-11T14:52:59.699Z,0.60
2023-03-11T14:55:31.247Z,0.68
2023-03-11T14:58:03.691Z,0.60
2023-03-11T15:00:34.936Z,0.65
2023-03-11T15:03:07.440Z,1.10
2023-03-11T15:05:43.045Z,0.90
2023-03-11T15:08:10.937Z,0.55
2023-03-11T15:10:39.024Z,0.73
2023-03-11T15:13:09.627Z,0.75
2023-03-11T15:15:37.357Z,0.75
2023-03-11T15:18:16.574Z,0.70
2023-03-11T15:20:47.905Z,0.67
2023-03-11T15:23:22.634Z,0.93
2023-03-11T15:25:51.054Z,0.60
2023-03-11T15:28:25.182Z,0.95
2023-03-11T15:30:53.799Z,0.85
2023-03-11T15:33:23.413Z,0.65
2023-03-11T15:35:52.548Z,0.30
2023-03-11T15:38:23.673Z,0.40
2023-03-11T15:40:54.051Z,0.60
2023-03-11T15:43:24.860Z,0.40
2023-03-11T15:45:54.331Z,0.40
2023-03-11T15:48:23.387Z,0.70
2023-03-11T15:50:54.816Z,0.80
2023-03-11T15:53:23.349Z,0.57
2023-03-11T15:55:51.301Z,0.63
2023-03-11T15:58:21.511Z,0.60
2023-03-11T16:00:51.243Z,0.50
2023-03-11T16:03:19.761Z,0.80
2023-03-11T16:05:47.718Z,0.60
2023-03-11T16:08:17.284Z,0.60
2023-03-11T16:10:44.959Z,0.60
2023-03-11T16:13:13.289Z,0.50
2023-03-11T16:15:42.261Z,0.53
2023-03-11T16:18:10.635Z,0.45
2023-03-11T16:20:41.888Z,0.60
2023-03-11T16:23:13.516Z,0.77
2023-03-11T16:25:42.557Z,0.70
2023-03-11T16:28:12.596Z,0.30
2023-03-11T16:30:40.257Z,0.60
2023-03-11T16:33:08.019Z,0.60
2023-03-11T16:35:36.164Z,0.50
2023-03-11T16:38:03.822Z,0.60
2023-03-11T16:40:32.791Z,0.65
2023-03-11T16:43:03.332Z,0.70
2023-03-11T16:45:31.060Z,0.70
2023-03-11T16:47:58.804Z,0.90
2023-03-11T16:50:44.544Z,0.88
2023-03-11T16:53:14.026Z,0.70
2023-03-11T16:55:41.744Z,0.68
2023-03-11T16:58:10.782Z,1.20
2023-03-11T17:00:40.995Z,1.02
2023-03-11T17:03:08.736Z,1.00
2023-03-11T17:05:36.416Z,1.13
2023-03-11T17:08:04.500Z,0.80
2023-03-11T17:10:36.677Z,0.60
2023-03-11T17:13:04.397Z,0.80
2023-03-11T17:15:36.051Z,0.77
2023-03-11T17:18:03.994Z,0.80
2023-03-11T17:20:31.682Z,0.87
2023-03-11T17:22:59.444Z,0.82
2023-03-11T17:25:27.100Z,0.93
2023-03-11T17:27:54.964Z,0.75
2023-03-11T17:30:36.063Z,0.88
2023-03-11T17:33:06.336Z,1.00
2023-03-11T17:35:34.248Z,0.80
2023-03-11T17:38:01.935Z,1.03
2023-03-11T17:40:31.663Z,0.80
2023-03-11T17:42:59.877Z,1.08
2023-03-11T17:45:27.868Z,1.13
2023-03-11T17:47:55.622Z,1.07
2023-03-11T17:50:26.445Z,1.20
2023-03-11T17:52:54.444Z,1.17
2023-03-11T17:55:22.133Z,1.15
2023-03-11T17:57:49.776Z,0.90
2023-03-11T18:00:18.204Z,1.13
2023-03-11T18:02:45.860Z,1.10
2023-03-11T18:05:13.502Z,1.10
2023-03-11T18:07:42.724Z,1.08
2023-03-11T18:10:11.861Z,0.95
2023-03-11T18:12:40.184Z,1.50
2023-03-11T18:15:14.419Z,1.30
2023-03-11T18:17:42.228Z,1.40
2023-03-11T18:20:11.007Z,0.98
2023-03-11T18:22:40.120Z,1.00
2023-03-11T18:25:11.428Z,1.35
2023-03-11T18:27:39.179Z,1.27
2023-03-11T18:30:08.181Z,1.40
2023-03-11T18:32:35.914Z,1.35
2023-03-11T18:35:03.546Z,1.33
2023-03-11T18:37:33.162Z,1.23
2023-03-11T18:40:00.795Z,1.50
2023-03-11T18:42:29.797Z,1.17
2023-03-11T18:44:57.413Z,1.30
2023-03-11T18:47:25.156Z,1.50
2023-03-11T18:49:52.803Z,1.40
2023-03-11T18:52:20.545Z,1.73
2023-03-11T18:54:48.372Z,1.50
2023-03-11T18:57:16.013Z,1.50
2023-03-11T18:59:45.096Z,1.38
2023-03-11T19:02:12.724Z,1.65
2023-03-11T19:04:40.859Z,1.65
2023-03-11T19:07:08.619Z,1.88
2023-03-11T19:09:36.924Z,1.50
2023-03-11T19:12:04.912Z,2.13
2023-03-11T19:14:33.067Z,1.98
2023-03-11T19:17:02.300Z,2.33
2023-03-11T19:19:33.518Z,1.80
2023-03-11T19:22:01.355Z,2.58
2023-03-11T19:24:29.138Z,2.30
2023-03-11T19:26:57.156Z,1.87
2023-03-11T19:29:26.879Z,2.25
2023-03-11T19:31:54.706Z,1.98
2023-03-11T19:34:25.281Z,2.20
2023-03-11T19:36:52.927Z,2.20
2023-03-11T19:39:20.829Z,2.20
2023-03-11T19:41:48.467Z,2.10
2023-03-11T19:44:16.192Z,2.33
2023-03-11T19:46:44.242Z,2.13
2023-03-11T19:49:11.928Z,2.58
2023-03-11T19:51:49.741Z,2.30
2023-03-11T19:54:18.377Z,2.80
2023-03-11T19:56:46.096Z,2.53
2023-03-11T19:59:13.817Z,2.30
2023-03-11T20:01:42.296Z,2.50
2023-03-11T20:04:10.771Z,2.50
2023-03-11T20:06:38.612Z,2.42
2023-03-11T20:09:07.949Z,2.30
2023-03-11T20:11:38.824Z,2.50
2023-03-11T20:16:52.512Z,2.28
2023-03-11T20:19:20.394Z,2.63
2023-03-11T20:21:48.551Z,2.85
2023-03-11T20:24:17.776Z,2.22
2023-03-11T20:26:45.531Z,2.53
2023-03-11T20:29:13.192Z,2.55
2023-03-11T20:31:41.108Z,3.20
2023-03-11T20:34:08.825Z,2.70
2023-03-11T20:36:36.582Z,2.50
2023-03-11T20:39:08.552Z,3.00
2023-03-11T20:41:40.806Z,2.72
2023-03-11T20:44:09.617Z,2.60
2023-03-11T20:46:37.512Z,2.53
2023-03-11T20:49:05.524Z,2.63
2023-03-11T20:51:33.489Z,3.10
2023-03-11T20:54:01.248Z,3.03
2023-03-11T20:56:29.439Z,2.60
2023-03-11T20:59:01.004Z,2.63
2023-03-11T21:01:30.230Z,2.47
2023-03-11T21:03:59.363Z,2.67
2023-03-11T21:06:42.012Z,2.83
2023-03-11T21:09:13.817Z,3.10
2023-03-11T21:11:41.761Z,2.85
2023-03-11T21:14:11.243Z,2.88
2023-03-11T21:16:39.078Z,3.10
2023-03-11T21:19:08.837Z,2.60
2023-03-11T21:21:37.055Z,3.10
2023-03-11T21:24:05.231Z,2.80
2023-03-11T21:26:51.237Z,2.60
2023-03-11T21:29:20.426Z,3.03
2023-03-11T21:31:48.181Z,3.00
2023-03-11T21:34:15.986Z,3.17
2023-03-11T21:36:43.843Z,3.42
2023-03-11T21:39:23.397Z,3.00
2023-03-11T21:41:53.383Z,3.00
2023-03-11T21:44:22.538Z,3.17
2023-03-11T21:46:50.371Z,3.10
2023-03-11T21:49:18.194Z,3.60
2023-03-11T21:51:45.903Z,3.10
2023-03-11T21:54:15.369Z,3.90
2023-03-11T21:56:43.465Z,3.42
2023-03-11T21:59:11.237Z,3.50
2023-03-11T22:01:40.485Z,3.67
2023-03-11T22:04:08.499Z,3.85
2023-03-11T22:06:36.427Z,3.97
2023-03-11T22:09:04.964Z,3.83
2023-03-11T22:11:32.831Z,4.25
2023-03-11T22:14:01.009Z,4.55
2023-03-11T22:16:28.886Z,4.32
2023-03-11T22:18:58.197Z,4.35
2023-03-11T22:21:25.934Z,4.82
2023-03-11T22:23:53.638Z,4.53
2023-03-11T22:26:21.279Z,4.75
2023-03-11T22:28:48.922Z,4.60
2023-03-11T22:31:19.004Z,4.80
2023-03-11T22:33:47.087Z,4.65
2023-03-11T22:36:16.406Z,4.15
2023-03-11T22:38:45.068Z,4.50
2023-03-11T22:41:14.476Z,4.35
2023-03-11T22:43:42.151Z,4.57
2023-03-11T22:46:09.849Z,4.30
2023-03-11T22:48:37.549Z,4.63
2023-03-11T22:51:06.497Z,4.50
2023-03-11T22:53:35.840Z,4.60
2023-03-11T22:56:08.248Z,4.57
2023-03-11T22:58:35.938Z,4.20
2023-03-11T23:01:04.332Z,4.47
2023-03-11T23:03:32.483Z,4.35
2023-03-11T23:06:00.275Z,4.88
2023-03-11T23:08:28.202Z,4.47
2023-03-11T23:10:57.338Z,4.50
2023-03-11T23:13:26.898Z,4.70
2023-03-11T23:15:54.565Z,4.68
2023-03-11T23:18:22.286Z,4.90
2023-03-11T23:20:49.942Z,4.85
2023-03-11T23:23:48.641Z,5.13
2023-03-11T23:26:17.969Z,4.30
2023-03-11T23:28:46.398Z,5.30
2023-03-11T23:31:15.680Z,5.05
2023-03-11T23:33:43.495Z,4.53
2023-03-11T23:36:13.378Z,4.85
2023-03-11T23:38:42.421Z,4.57
2023-03-11T23:41:12.186Z,4.80
2023-03-11T23:43:41.783Z,4.43
2023-03-11T23:46:10.939Z,4.00
2023-03-11T23:48:39.092Z,4.22
2023-03-11T23:51:08.259Z,4.40
2023-03-11T23:53:36.323Z,3.90
2023-03-11T23:56:09.796Z,4.28
2023-03-11T23:58:37.441Z,4.47
